Troye d'Ariège ULM

FR-0355 · Occitanie, 法国

此METAR来自2022年8月14日 20:30. 最近的
罗盘
风向 的 风向 290° Troye d'Ariège ULM 11/29
风: 9 kt, 3 beaufort

9 kt

改变
0 2.000 4.000 6.000 8.000 10.000
FEW 7.000 ft
SCT 9.200 ft
METAR LFMK 141830Z AUTO 29009KT 9999 FEW070 SCT092 27/15 Q1008 NOSIG

METAR Troye d'Ariège ULM - FR-0355

Troye d'Ariège ULM是Troye d'Ariège,法国中的小机场。 该机场有一条跑道: 11/29. 该领域的国际民航组织标志是FR-0355.

这份报告是针对2022年8月14日 20:30, 当地时间在Carcassonne Airport进行的。

机场观察

风向为290°,速度为9 kt。

可见度为10 km 或者更多。

有几云在7.000 ft的高度 和 疏云,零星散落的云朵在9.200 ft的高度。 没有观察到天花板。

温度和风寒是27 °C。 热指数为27。 露点为15 °C,相对湿度为48%。 海平面上的气压为1008 hPa (QNH)。

白天

今天,太阳从07:54升起,在19:27降落。 这适用于Troye d'Ariège ULM,世界夏令时可能有所不同。 当地时间与世界标准时间之间的时差为+2 小时。 夏令时目前正在进行中。

公司介绍

我们没有关于这个机场的公司信息。

体会

到Vliegles.nl去找飞行课程,跳伞和其他飞行体验。 浏览页面,了解Troye d'Ariège ULM附近所有可用的活动。 你也可以使用搜索功能来寻找你所在地附近的特定飞行课程、跳伞或其他飞行体验。

跑道

Id 标题 侧风 逆风 侧风 %
11/29 110°-290° 9 kt 0 %

逆风成分最大的方向会被突出显示,并用于横风计算。 这并不一定意味着这个方向在使用。

乌云

7.000 ft FEW 几云
9.200 ft SCT 疏云,零星散落的云朵

温度 & 天气

温度 27 °C
露点 15 °C
相对湿度 48%
热度指数 27 °C
Kp-index 2 (0-9)

白天

日出
06:55
中午
13:55
日落
20:55

小工具

你想在你的网站上有一个关于Troye d'Ariège ULM的当前航空天气(METAR)的小部件吗?

</> 显示HTML代码

我们和第三方通过cookies跟踪您在我们网站上的上网行为。如果您继续,我们认为您同意我们的cookie政策。 了解更多